sensor_id;sensor_type;location;lat;lon;timestamp;P1;durP1;ratioP1;P2;durP2;ratioP2
38037;SDS011;23843;51.320;12.340;2023-06-10T00:02:26;2.47;;;1.98;;
38037;SDS011;23843;51.320;12.340;2023-06-10T00:04:52;2.15;;;1.60;;
38037;SDS011;23843;51.320;12.340;2023-06-10T00:07:17;3.63;;;1.90;;
38037;SDS011;23843;51.320;12.340;2023-06-10T00:09:44;1.80;;;1.70;;
38037;SDS011;23843;51.320;12.340;2023-06-10T00:12:10;2.40;;;1.85;;
38037;SDS011;23843;51.320;12.340;2023-06-10T00:14:36;3.65;;;2.70;;
38037;SDS011;23843;51.320;12.340;2023-06-10T00:17:04;3.20;;;2.10;;
38037;SDS011;23843;51.320;12.340;2023-06-10T00:19:31;2.53;;;2.20;;
38037;SDS011;23843;51.320;12.340;2023-06-10T00:21:57;2.00;;;1.70;;
38037;SDS011;23843;51.320;12.340;2023-06-10T00:24:22;2.53;;;1.80;;
38037;SDS011;23843;51.320;12.340;2023-06-10T00:26:48;1.75;;;1.35;;
38037;SDS011;23843;51.320;12.340;2023-06-10T00:29:14;1.67;;;1.38;;
38037;SDS011;23843;51.320;12.340;2023-06-10T00:31:39;1.08;;;1.00;;
38037;SDS011;23843;51.320;12.340;2023-06-10T00:34:05;1.67;;;1.05;;
38037;SDS011;23843;51.320;12.340;2023-06-10T00:36:33;1.00;;;0.90;;
38037;SDS011;23843;51.320;12.340;2023-06-10T00:38:58;1.48;;;1.00;;
38037;SDS011;23843;51.320;12.340;2023-06-10T00:41:24;1.40;;;1.30;;
38037;SDS011;23843;51.320;12.340;2023-06-10T00:43:50;1.17;;;1.02;;
38037;SDS011;23843;51.320;12.340;2023-06-10T00:46:15;1.02;;;0.93;;
38037;SDS011;23843;51.320;12.340;2023-06-10T00:48:41;1.67;;;1.25;;
38037;SDS011;23843;51.320;12.340;2023-06-10T00:51:08;1.30;;;1.20;;
38037;SDS011;23843;51.320;12.340;2023-06-10T00:53:35;2.15;;;1.27;;
38037;SDS011;23843;51.320;12.340;2023-06-10T00:56:01;1.25;;;1.10;;
38037;SDS011;23843;51.320;12.340;2023-06-10T00:58:27;1.20;;;0.93;;
38037;SDS011;23843;51.320;12.340;2023-06-10T01:00:52;1.23;;;0.98;;
38037;SDS011;23843;51.320;12.340;2023-06-10T01:03:18;1.13;;;1.00;;
38037;SDS011;23843;51.320;12.340;2023-06-10T01:05:43;1.25;;;1.00;;
38037;SDS011;23843;51.320;12.340;2023-06-10T01:08:15;1.60;;;1.05;;
38037;SDS011;23843;51.320;12.340;2023-06-10T01:10:51;0.82;;;0.70;;
38037;SDS011;23843;51.320;12.340;2023-06-10T01:13:20;0.90;;;0.90;;
38037;SDS011;23843;51.320;12.340;2023-06-10T01:15:47;0.80;;;0.70;;
38037;SDS011;23843;51.320;12.340;2023-06-10T01:18:13;0.70;;;0.70;;
38037;SDS011;23843;51.320;12.340;2023-06-10T01:20:38;0.70;;;0.70;;
38037;SDS011;23843;51.320;12.340;2023-06-10T01:23:05;1.40;;;0.82;;
38037;SDS011;23843;51.320;12.340;2023-06-10T01:25:32;0.73;;;0.60;;
38037;SDS011;23843;51.320;12.340;2023-06-10T01:28:01;0.47;;;0.47;;
38037;SDS011;23843;51.320;12.340;2023-06-10T01:30:31;0.75;;;0.73;;
38037;SDS011;23843;51.320;12.340;2023-06-10T01:33:02;0.90;;;0.80;;
38037;SDS011;23843;51.320;12.340;2023-06-10T01:35:31;1.23;;;0.70;;
38037;SDS011;23843;51.320;12.340;2023-06-10T01:37:57;0.70;;;0.70;;
38037;SDS011;23843;51.320;12.340;2023-06-10T01:40:26;1.00;;;0.90;;
38037;SDS011;23843;51.320;12.340;2023-06-10T01:42:51;0.70;;;0.70;;
38037;SDS011;23843;51.320;12.340;2023-06-10T01:45:17;0.68;;;0.60;;
38037;SDS011;23843;51.320;12.340;2023-06-10T01:47:42;1.58;;;1.35;;
38037;SDS011;23843;51.320;12.340;2023-06-10T01:50:08;0.68;;;0.65;;
38037;SDS011;23843;51.320;12.340;2023-06-10T01:52:34;1.08;;;0.82;;
38037;SDS011;23843;51.320;12.340;2023-06-10T01:55:00;1.52;;;0.82;;
38037;SDS011;23843;51.320;12.340;2023-06-10T01:57:26;1.30;;;1.00;;
38037;SDS011;23843;51.320;12.340;2023-06-10T01:59:52;0.88;;;0.88;;
38037;SDS011;23843;51.320;12.340;2023-06-10T02:02:17;1.20;;;1.05;;
38037;SDS011;23843;51.320;12.340;2023-06-10T02:04:43;1.43;;;1.20;;
38037;SDS011;23843;51.320;12.340;2023-06-10T02:07:08;1.20;;;1.10;;
38037;SDS011;23843;51.320;12.340;2023-06-10T02:09:34;1.30;;;1.20;;
38037;SDS011;23843;51.320;12.340;2023-06-10T02:11:59;1.73;;;1.60;;
38037;SDS011;23843;51.320;12.340;2023-06-10T02:14:26;1.60;;;1.50;;
38037;SDS011;23843;51.320;12.340;2023-06-10T02:16:51;0.73;;;0.73;;
38037;SDS011;23843;51.320;12.340;2023-06-10T02:19:17;0.90;;;0.77;;
38037;SDS011;23843;51.320;12.340;2023-06-10T02:21:42;2.17;;;1.50;;
38037;SDS011;23843;51.320;12.340;2023-06-10T02:24:08;1.35;;;1.15;;
38037;SDS011;23843;51.320;12.340;2023-06-10T02:26:33;1.70;;;1.60;;
38037;SDS011;23843;51.320;12.340;2023-06-10T02:28:59;1.13;;;0.90;;
38037;SDS011;23843;51.320;12.340;2023-06-10T02:31:26;1.40;;;1.30;;
38037;SDS011;23843;51.320;12.340;2023-06-10T02:33:51;0.60;;;0.55;;
38037;SDS011;23843;51.320;12.340;2023-06-10T02:36:16;0.60;;;0.60;;
38037;SDS011;23843;51.320;12.340;2023-06-10T02:38:42;1.00;;;0.90;;
38037;SDS011;23843;51.320;12.340;2023-06-10T02:41:07;1.25;;;1.20;;
38037;SDS011;23843;51.320;12.340;2023-06-10T02:43:33;0.60;;;0.60;;
38037;SDS011;23843;51.320;12.340;2023-06-10T02:45:58;0.80;;;0.80;;
38037;SDS011;23843;51.320;12.340;2023-06-10T02:48:25;0.90;;;0.90;;
38037;SDS011;23843;51.320;12.340;2023-06-10T02:50:52;0.50;;;0.50;;
38037;SDS011;23843;51.320;12.340;2023-06-10T02:53:18;0.80;;;0.80;;
38037;SDS011;23843;51.320;12.340;2023-06-10T02:55:43;0.98;;;0.85;;
38037;SDS011;23843;51.320;12.340;2023-06-10T02:58:09;0.50;;;0.50;;
38037;SDS011;23843;51.320;12.340;2023-06-10T03:00:34;0.60;;;0.60;;
38037;SDS011;23843;51.320;12.340;2023-06-10T03:03:00;2.05;;;1.02;;
38037;SDS011;23843;51.320;12.340;2023-06-10T03:05:26;0.98;;;0.88;;
38037;SDS011;23843;51.320;12.340;2023-06-10T03:07:52;0.70;;;0.70;;
38037;SDS011;23843;51.320;12.340;2023-06-10T03:10:17;1.27;;;1.00;;
38037;SDS011;23843;51.320;12.340;2023-06-10T03:12:43;1.45;;;0.80;;
38037;SDS011;23843;51.320;12.340;2023-06-10T03:15:08;0.80;;;0.70;;
38037;SDS011;23843;51.320;12.340;2023-06-10T03:17:34;0.77;;;0.60;;
38037;SDS011;23843;51.320;12.340;2023-06-10T03:19:59;1.15;;;0.80;;
38037;SDS011;23843;51.320;12.340;2023-06-10T03:22:26;0.60;;;0.60;;
38037;SDS011;23843;51.320;12.340;2023-06-10T03:24:53;0.60;;;0.60;;
38037;SDS011;23843;51.320;12.340;2023-06-10T03:27:18;0.60;;;0.60;;
38037;SDS011;23843;51.320;12.340;2023-06-10T03:29:44;0.93;;;0.82;;
38037;SDS011;23843;51.320;12.340;2023-06-10T03:32:09;1.02;;;0.80;;
38037;SDS011;23843;51.320;12.340;2023-06-10T03:34:35;0.50;;;0.50;;
38037;SDS011;23843;51.320;12.340;2023-06-10T03:37:00;0.40;;;0.40;;
38037;SDS011;23843;51.320;12.340;2023-06-10T03:39:27;0.70;;;0.70;;
38037;SDS011;23843;51.320;12.340;2023-06-10T03:41:53;0.70;;;0.68;;
38037;SDS011;23843;51.320;12.340;2023-06-10T03:44:18;0.70;;;0.70;;
38037;SDS011;23843;51.320;12.340;2023-06-10T03:46:44;0.60;;;0.60;;
38037;SDS011;23843;51.320;12.340;2023-06-10T03:49:09;0.70;;;0.65;;
38037;SDS011;23843;51.320;12.340;2023-06-10T03:51:35;0.60;;;0.60;;
38037;SDS011;23843;51.320;12.340;2023-06-10T03:54:00;1.00;;;0.60;;
38037;SDS011;23843;51.320;12.340;2023-06-10T03:56:28;1.13;;;1.02;;
38037;SDS011;23843;51.320;12.340;2023-06-10T03:58:53;0.60;;;0.60;;
38037;SDS011;23843;51.320;12.340;2023-06-10T04:01:19;0.90;;;0.80;;
38037;SDS011;23843;51.320;12.340;2023-06-10T04:03:44;0.77;;;0.70;;
38037;SDS011;23843;51.320;12.340;2023-06-10T04:06:10;0.68;;;0.68;;
38037;SDS011;23843;51.320;12.340;2023-06-10T04:08:35;1.07;;;1.00;;
38037;SDS011;23843;51.320;12.340;2023-06-10T04:11:01;1.10;;;1.00;;
38037;SDS011;23843;51.320;12.340;2023-06-10T04:13:28;0.93;;;0.80;;
38037;SDS011;23843;51.320;12.340;2023-06-10T04:15:54;0.80;;;0.73;;
38037;SDS011;23843;51.320;12.340;2023-06-10T04:18:19;0.80;;;0.80;;
38037;SDS011;23843;51.320;12.340;2023-06-10T04:20:45;2.58;;;1.40;;
38037;SDS011;23843;51.320;12.340;2023-06-10T04:23:10;2.50;;;1.52;;
38037;SDS011;23843;51.320;12.340;2023-06-10T04:25:36;1.50;;;1.27;;
38037;SDS011;23843;51.320;12.340;2023-06-10T04:28:01;1.45;;;1.20;;
38037;SDS011;23843;51.320;12.340;2023-06-10T04:30:29;1.65;;;1.50;;
38037;SDS011;23843;51.320;12.340;2023-06-10T04:32:55;1.25;;;1.10;;
38037;SDS011;23843;51.320;12.340;2023-06-10T04:35:20;1.00;;;0.90;;
38037;SDS011;23843;51.320;12.340;2023-06-10T04:37:46;1.05;;;0.95;;
38037;SDS011;23843;51.320;12.340;2023-06-10T04:40:11;1.00;;;0.90;;
38037;SDS011;23843;51.320;12.340;2023-06-10T04:42:37;1.42;;;1.10;;
38037;SDS011;23843;51.320;12.340;2023-06-10T04:45:02;1.65;;;1.13;;
38037;SDS011;23843;51.320;12.340;2023-06-10T04:47:30;1.30;;;1.20;;
38037;SDS011;23843;51.320;12.340;2023-06-10T04:49:56;2.35;;;1.90;;
38037;SDS011;23843;51.320;12.340;2023-06-10T04:52:21;1.55;;;1.45;;
38037;SDS011;23843;51.320;12.340;2023-06-10T04:54:47;2.25;;;1.73;;
38037;SDS011;23843;51.320;12.340;2023-06-10T04:57:12;1.67;;;1.58;;
38037;SDS011;23843;51.320;12.340;2023-06-10T04:59:41;2.10;;;1.70;;
38037;SDS011;23843;51.320;12.340;2023-06-10T05:02:07;1.60;;;1.42;;
38037;SDS011;23843;51.320;12.340;2023-06-10T05:04:34;2.10;;;1.85;;
38037;SDS011;23843;51.320;12.340;2023-06-10T05:06:59;1.52;;;1.42;;
38037;SDS011;23843;51.320;12.340;2023-06-10T05:09:25;2.22;;;1.77;;
38037;SDS011;23843;51.320;12.340;2023-06-10T05:11:50;1.40;;;1.30;;
38037;SDS011;23843;51.320;12.340;2023-06-10T05:14:16;1.52;;;1.42;;
38037;SDS011;23843;51.320;12.340;2023-06-10T05:16:41;1.70;;;1.58;;
38037;SDS011;23843;51.320;12.340;2023-06-10T05:19:07;1.80;;;1.50;;
38037;SDS011;23843;51.320;12.340;2023-06-10T05:21:34;1.88;;;1.45;;
38037;SDS011;23843;51.320;12.340;2023-06-10T05:23:59;2.85;;;1.85;;
38037;SDS011;23843;51.320;12.340;2023-06-10T05:26:25;1.63;;;1.52;;
38037;SDS011;23843;51.320;12.340;2023-06-10T05:28:50;1.83;;;1.73;;
38037;SDS011;23843;51.320;12.340;2023-06-10T05:31:16;1.45;;;1.35;;
38037;SDS011;23843;51.320;12.340;2023-06-10T05:33:42;1.70;;;1.60;;
38037;SDS011;23843;51.320;12.340;2023-06-10T05:36:07;1.90;;;1.58;;
38037;SDS011;23843;51.320;12.340;2023-06-10T05:38:34;1.80;;;1.70;;
38037;SDS011;23843;51.320;12.340;2023-06-10T05:41:00;2.40;;;1.80;;
38037;SDS011;23843;51.320;12.340;2023-06-10T05:43:25;2.38;;;1.60;;
38037;SDS011;23843;51.320;12.340;2023-06-10T05:45:51;1.60;;;1.50;;
38037;SDS011;23843;51.320;12.340;2023-06-10T05:48:16;3.13;;;2.25;;
38037;SDS011;23843;51.320;12.340;2023-06-10T05:50:42;2.00;;;1.80;;
38037;SDS011;23843;51.320;12.340;2023-06-10T05:53:07;2.08;;;1.83;;
38037;SDS011;23843;51.320;12.340;2023-06-10T05:55:34;1.92;;;1.80;;
38037;SDS011;23843;51.320;12.340;2023-06-10T05:57:59;2.00;;;1.70;;
38037;SDS011;23843;51.320;12.340;2023-06-10T06:00:25;1.92;;;1.80;;
38037;SDS011;23843;51.320;12.340;2023-06-10T06:02:51;2.00;;;1.80;;
38037;SDS011;23843;51.320;12.340;2023-06-10T06:05:16;2.30;;;2.10;;
38037;SDS011;23843;51.320;12.340;2023-06-10T06:07:41;1.90;;;1.70;;
38037;SDS011;23843;51.320;12.340;2023-06-10T06:10:07;2.47;;;2.28;;
38037;SDS011;23843;51.320;12.340;2023-06-10T06:12:34;3.00;;;2.13;;
38037;SDS011;23843;51.320;12.340;2023-06-10T06:14:59;2.53;;;2.22;;
38037;SDS011;23843;51.320;12.340;2023-06-10T06:17:27;1.70;;;1.60;;
38037;SDS011;23843;51.320;12.340;2023-06-10T06:19:52;2.33;;;2.10;;
38037;SDS011;23843;51.320;12.340;2023-06-10T06:22:18;1.80;;;1.70;;
38037;SDS011;23843;51.320;12.340;2023-06-10T06:24:43;1.80;;;1.70;;
38037;SDS011;23843;51.320;12.340;2023-06-10T06:27:09;1.92;;;1.83;;
38037;SDS011;23843;51.320;12.340;2023-06-10T06:29:36;1.80;;;1.70;;
38037;SDS011;23843;51.320;12.340;2023-06-10T06:32:02;2.20;;;2.00;;
38037;SDS011;23843;51.320;12.340;2023-06-10T06:34:27;1.88;;;1.77;;
38037;SDS011;23843;51.320;12.340;2023-06-10T06:36:53;2.50;;;2.30;;
38037;SDS011;23843;51.320;12.340;2023-06-10T06:39:18;2.00;;;1.88;;
38037;SDS011;23843;51.320;12.340;2023-06-10T06:41:44;2.15;;;1.95;;
38037;SDS011;23843;51.320;12.340;2023-06-10T06:44:09;1.90;;;1.70;;
38037;SDS011;23843;51.320;12.340;2023-06-10T06:46:36;2.20;;;2.00;;
38037;SDS011;23843;51.320;12.340;2023-06-10T06:49:01;2.42;;;2.22;;
38037;SDS011;23843;51.320;12.340;2023-06-10T06:51:27;2.53;;;2.33;;
38037;SDS011;23843;51.320;12.340;2023-06-10T06:53:52;3.05;;;2.10;;
38037;SDS011;23843;51.320;12.340;2023-06-10T06:56:18;2.25;;;2.05;;
38037;SDS011;23843;51.320;12.340;2023-06-10T06:58:43;2.90;;;2.70;;
38037;SDS011;23843;51.320;12.340;2023-06-10T07:01:08;2.65;;;2.45;;
38037;SDS011;23843;51.320;12.340;2023-06-10T07:03:35;2.20;;;2.05;;
38037;SDS011;23843;51.320;12.340;2023-06-10T07:06:01;2.75;;;2.20;;
38037;SDS011;23843;51.320;12.340;2023-06-10T07:08:32;2.50;;;2.30;;
38037;SDS011;23843;51.320;12.340;2023-06-10T07:11:16;2.83;;;2.63;;
38037;SDS011;23843;51.320;12.340;2023-06-10T07:13:42;2.92;;;2.72;;
38037;SDS011;23843;51.320;12.340;2023-06-10T07:16:07;2.70;;;2.50;;
38037;SDS011;23843;51.320;12.340;2023-06-10T07:18:32;2.42;;;2.33;;
38037;SDS011;23843;51.320;12.340;2023-06-10T07:21:00;2.67;;;2.47;;
38037;SDS011;23843;51.320;12.340;2023-06-10T07:23:25;2.70;;;2.50;;
38037;SDS011;23843;51.320;12.340;2023-06-10T07:25:50;2.67;;;2.47;;
38037;SDS011;23843;51.320;12.340;2023-06-10T07:28:16;2.92;;;2.72;;
38037;SDS011;23843;51.320;12.340;2023-06-10T07:30:41;2.30;;;2.20;;
38037;SDS011;23843;51.320;12.340;2023-06-10T07:33:07;3.30;;;3.10;;
38037;SDS011;23843;51.320;12.340;2023-06-10T07:35:32;3.80;;;3.50;;
38037;SDS011;23843;51.320;12.340;2023-06-10T07:37:59;3.10;;;2.90;;
38037;SDS011;23843;51.320;12.340;2023-06-10T07:40:28;3.05;;;2.85;;
38037;SDS011;23843;51.320;12.340;2023-06-10T07:42:53;2.80;;;2.60;;
38037;SDS011;23843;51.320;12.340;2023-06-10T07:45:20;3.20;;;3.00;;
38037;SDS011;23843;51.320;12.340;2023-06-10T07:47:46;3.20;;;3.00;;
38037;SDS011;23843;51.320;12.340;2023-06-10T07:50:11;3.45;;;3.25;;
38037;SDS011;23843;51.320;12.340;2023-06-10T07:52:37;2.88;;;2.67;;
38037;SDS011;23843;51.320;12.340;2023-06-10T07:55:04;3.65;;;3.35;;
38037;SDS011;23843;51.320;12.340;2023-06-10T07:57:30;3.75;;;3.45;;
38037;SDS011;23843;51.320;12.340;2023-06-10T07:59:56;3.03;;;2.83;;
38037;SDS011;23843;51.320;12.340;2023-06-10T08:02:21;3.10;;;2.90;;
38037;SDS011;23843;51.320;12.340;2023-06-10T08:04:50;3.47;;;3.20;;
38037;SDS011;23843;51.320;12.340;2023-06-10T08:07:15;3.55;;;3.25;;
38037;SDS011;23843;51.320;12.340;2023-06-10T08:09:41;3.03;;;2.83;;
38037;SDS011;23843;51.320;12.340;2023-06-10T08:12:08;2.85;;;2.65;;
38037;SDS011;23843;51.320;12.340;2023-06-10T08:14:33;3.00;;;2.80;;
38037;SDS011;23843;51.320;12.340;2023-06-10T08:16:59;3.47;;;3.17;;
38037;SDS011;23843;51.320;12.340;2023-06-10T08:19:24;2.70;;;2.50;;
38037;SDS011;23843;51.320;12.340;2023-06-10T08:21:50;2.50;;;2.30;;
38037;SDS011;23843;51.320;12.340;2023-06-10T08:24:15;2.95;;;2.75;;
38037;SDS011;23843;51.320;12.340;2023-06-10T08:26:47;3.13;;;2.85;;
38037;SDS011;23843;51.320;12.340;2023-06-10T08:29:21;3.92;;;2.47;;
38037;SDS011;23843;51.320;12.340;2023-06-10T08:31:47;2.70;;;2.50;;
38037;SDS011;23843;51.320;12.340;2023-06-10T08:34:12;2.47;;;2.28;;
38037;SDS011;23843;51.320;12.340;2023-06-10T08:36:42;2.60;;;2.40;;
38037;SDS011;23843;51.320;12.340;2023-06-10T08:39:08;2.90;;;2.70;;
38037;SDS011;23843;51.320;12.340;2023-06-10T08:41:34;2.58;;;2.47;;
38037;SDS011;23843;51.320;12.340;2023-06-10T08:44:03;2.83;;;2.63;;
38037;SDS011;23843;51.320;12.340;2023-06-10T08:46:34;3.63;;;3.33;;
38037;SDS011;23843;51.320;12.340;2023-06-10T08:49:05;4.38;;;4.03;;
38037;SDS011;23843;51.320;12.340;2023-06-10T08:51:31;3.90;;;3.60;;
38037;SDS011;23843;51.320;12.340;2023-06-10T08:54:02;4.30;;;4.00;;
38037;SDS011;23843;51.320;12.340;2023-06-10T08:56:33;3.10;;;2.90;;
38037;SDS011;23843;51.320;12.340;2023-06-10T08:59:02;3.80;;;3.60;;
38037;SDS011;23843;51.320;12.340;2023-06-10T09:01:28;3.30;;;3.10;;
38037;SDS011;23843;51.320;12.340;2023-06-10T09:03:56;4.10;;;3.80;;
38037;SDS011;23843;51.320;12.340;2023-06-10T09:06:22;4.35;;;4.05;;
38037;SDS011;23843;51.320;12.340;2023-06-10T09:08:48;4.88;;;4.57;;
38037;SDS011;23843;51.320;12.340;2023-06-10T09:11:15;4.15;;;3.85;;
38037;SDS011;23843;51.320;12.340;2023-06-10T09:13:40;3.72;;;3.50;;
38037;SDS011;23843;51.320;12.340;2023-06-10T09:16:06;3.83;;;3.63;;
38037;SDS011;23843;51.320;12.340;2023-06-10T09:18:31;3.72;;;3.50;;
38037;SDS011;23843;51.320;12.340;2023-06-10T09:20:58;3.50;;;3.20;;
38037;SDS011;23843;51.320;12.340;2023-06-10T09:23:24;2.67;;;2.47;;
38037;SDS011;23843;51.320;12.340;2023-06-10T09:25:55;2.78;;;2.58;;
38037;SDS011;23843;51.320;12.340;2023-06-10T09:28:21;2.80;;;2.60;;
38037;SDS011;23843;51.320;12.340;2023-06-10T09:30:47;2.03;;;1.92;;
38037;SDS011;23843;51.320;12.340;2023-06-10T09:33:12;2.88;;;2.67;;
38037;SDS011;23843;51.320;12.340;2023-06-10T09:35:44;2.47;;;2.28;;
38037;SDS011;23843;51.320;12.340;2023-06-10T09:38:13;2.60;;;2.40;;
38037;SDS011;23843;51.320;12.340;2023-06-10T09:40:47;4.28;;;3.65;;
38037;SDS011;23843;51.320;12.340;2023-06-10T09:43:14;3.35;;;3.05;;
38037;SDS011;23843;51.320;12.340;2023-06-10T09:45:39;2.50;;;2.30;;
38037;SDS011;23843;51.320;12.340;2023-06-10T09:48:05;2.60;;;2.40;;
38037;SDS011;23843;51.320;12.340;2023-06-10T09:50:32;2.70;;;2.50;;
38037;SDS011;23843;51.320;12.340;2023-06-10T09:52:58;4.25;;;3.72;;
38037;SDS011;23843;51.320;12.340;2023-06-10T09:55:30;3.85;;;3.53;;
38037;SDS011;23843;51.320;12.340;2023-06-10T09:57:58;6.80;;;4.88;;
38037;SDS011;23843;51.320;12.340;2023-06-10T10:00:24;7.90;;;5.13;;
38037;SDS011;23843;51.320;12.340;2023-06-10T10:02:50;5.30;;;4.80;;
38037;SDS011;23843;51.320;12.340;2023-06-10T10:05:17;6.97;;;5.97;;
38037;SDS011;23843;51.320;12.340;2023-06-10T10:07:46;5.38;;;4.88;;
38037;SDS011;23843;51.320;12.340;2023-06-10T10:10:16;4.90;;;4.50;;
38037;SDS011;23843;51.320;12.340;2023-06-10T10:12:45;6.30;;;5.70;;
38037;SDS011;23843;51.320;12.340;2023-06-10T10:15:12;5.00;;;4.60;;
38037;SDS011;23843;51.320;12.340;2023-06-10T10:17:39;5.72;;;4.78;;
38037;SDS011;23843;51.320;12.340;2023-06-10T10:20:10;6.50;;;5.82;;
38037;SDS011;23843;51.320;12.340;2023-06-10T10:22:39;7.18;;;5.55;;
38037;SDS011;23843;51.320;12.340;2023-06-10T10:25:09;6.78;;;5.25;;
38037;SDS011;23843;51.320;12.340;2023-06-10T10:27:38;6.07;;;5.22;;
38037;SDS011;23843;51.320;12.340;2023-06-10T10:30:10;5.97;;;4.93;;
38037;SDS011;23843;51.320;12.340;2023-06-10T10:32:40;6.28;;;5.53;;
38037;SDS011;23843;51.320;12.340;2023-06-10T10:35:12;6.53;;;5.00;;
38037;SDS011;23843;51.320;12.340;2023-06-10T10:37:41;6.45;;;5.85;;
38037;SDS011;23843;51.320;12.340;2023-06-10T10:40:07;7.85;;;5.90;;
38037;SDS011;23843;51.320;12.340;2023-06-10T10:42:35;6.20;;;5.60;;
38037;SDS011;23843;51.320;12.340;2023-06-10T10:45:01;6.35;;;5.75;;
38037;SDS011;23843;51.320;12.340;2023-06-10T10:47:29;6.13;;;5.30;;
38037;SDS011;23843;51.320;12.340;2023-06-10T10:49:56;5.55;;;5.00;;
38037;SDS011;23843;51.320;12.340;2023-06-10T10:52:22;6.00;;;5.40;;
38037;SDS011;23843;51.320;12.340;2023-06-10T10:54:47;6.90;;;6.20;;
38037;SDS011;23843;51.320;12.340;2023-06-10T10:57:13;6.55;;;5.47;;
38037;SDS011;23843;51.320;12.340;2023-06-10T10:59:51;3.60;;;3.30;;
38037;SDS011;23843;51.320;12.340;2023-06-10T11:02:18;5.43;;;4.28;;
38037;SDS011;23843;51.320;12.340;2023-06-10T11:04:46;5.43;;;4.93;;
38037;SDS011;23843;51.320;12.340;2023-06-10T11:07:13;4.82;;;4.38;;
38037;SDS011;23843;51.320;12.340;2023-06-10T11:09:39;4.85;;;4.45;;
38037;SDS011;23843;51.320;12.340;2023-06-10T11:12:23;4.30;;;3.90;;
38037;SDS011;23843;51.320;12.340;2023-06-10T11:14:51;5.65;;;5.10;;
38037;SDS011;23843;51.320;12.340;2023-06-10T11:17:20;5.93;;;4.20;;
38037;SDS011;23843;51.320;12.340;2023-06-10T11:19:47;5.80;;;5.30;;
38037;SDS011;23843;51.320;12.340;2023-06-10T11:22:15;6.80;;;6.15;;
38037;SDS011;23843;51.320;12.340;2023-06-10T11:24:42;5.53;;;4.90;;
38037;SDS011;23843;51.320;12.340;2023-06-10T11:27:16;5.80;;;5.28;;
38037;SDS011;23843;51.320;12.340;2023-06-10T11:30:17;4.57;;;4.18;;
38037;SDS011;23843;51.320;12.340;2023-06-10T11:32:43;4.32;;;3.92;;
38037;SDS011;23843;51.320;12.340;2023-06-10T11:35:10;5.35;;;4.85;;
38037;SDS011;23843;51.320;12.340;2023-06-10T11:37:36;4.60;;;4.20;;
38037;SDS011;23843;51.320;12.340;2023-06-10T11:40:02;7.32;;;5.95;;
38037;SDS011;23843;51.320;12.340;2023-06-10T11:42:29;5.97;;;5.47;;
38037;SDS011;23843;51.320;12.340;2023-06-10T11:44:54;5.68;;;5.18;;
38037;SDS011;23843;51.320;12.340;2023-06-10T11:47:20;4.80;;;4.30;;
38037;SDS011;23843;51.320;12.340;2023-06-10T11:49:46;6.40;;;5.75;;
38037;SDS011;23843;51.320;12.340;2023-06-10T11:52:26;5.00;;;4.60;;
38037;SDS011;23843;51.320;12.340;2023-06-10T11:54:53;4.80;;;4.40;;
38037;SDS011;23843;51.320;12.340;2023-06-10T11:57:19;4.43;;;4.03;;
38037;SDS011;23843;51.320;12.340;2023-06-10T11:59:44;4.45;;;3.85;;
38037;SDS011;23843;51.320;12.340;2023-06-10T12:02:14;4.10;;;3.28;;
38037;SDS011;23843;51.320;12.340;2023-06-10T12:04:40;4.80;;;4.40;;
38037;SDS011;23843;51.320;12.340;2023-06-10T12:07:05;3.90;;;3.60;;
38037;SDS011;23843;51.320;12.340;2023-06-10T12:09:32;4.15;;;3.75;;
38037;SDS011;23843;51.320;12.340;2023-06-10T12:11:58;2.97;;;2.78;;
38037;SDS011;23843;51.320;12.340;2023-06-10T12:17:17;5.82;;;5.30;;
38037;SDS011;23843;51.320;12.340;2023-06-10T12:19:43;5.53;;;4.07;;
38037;SDS011;23843;51.320;12.340;2023-06-10T12:22:08;4.20;;;3.85;;
38037;SDS011;23843;51.320;12.340;2023-06-10T12:24:39;3.30;;;2.97;;
38037;SDS011;23843;51.320;12.340;2023-06-10T12:27:10;5.18;;;3.45;;
38037;SDS011;23843;51.320;12.340;2023-06-10T12:29:36;3.92;;;3.30;;
38037;SDS011;23843;51.320;12.340;2023-06-10T12:32:03;4.60;;;4.20;;
38037;SDS011;23843;51.320;12.340;2023-06-10T12:34:30;5.82;;;4.30;;
38037;SDS011;23843;51.320;12.340;2023-06-10T12:36:56;4.18;;;3.78;;
38037;SDS011;23843;51.320;12.340;2023-06-10T12:39:21;3.53;;;3.22;;
38037;SDS011;23843;51.320;12.340;2023-06-10T12:41:48;4.03;;;3.63;;
38037;SDS011;23843;51.320;12.340;2023-06-10T12:44:15;4.57;;;4.18;;
38037;SDS011;23843;51.320;12.340;2023-06-10T12:46:41;5.00;;;4.50;;
38037;SDS011;23843;51.320;12.340;2023-06-10T12:49:06;6.75;;;4.15;;
38037;SDS011;23843;51.320;12.340;2023-06-10T12:51:32;3.92;;;3.58;;
38037;SDS011;23843;51.320;12.340;2023-06-10T12:53:58;4.68;;;4.28;;
38037;SDS011;23843;51.320;12.340;2023-06-10T12:56:23;4.00;;;3.70;;
38037;SDS011;23843;51.320;12.340;2023-06-10T12:58:50;2.90;;;2.60;;
38037;SDS011;23843;51.320;12.340;2023-06-10T13:01:16;3.20;;;2.90;;
38037;SDS011;23843;51.320;12.340;2023-06-10T13:03:41;6.47;;;5.20;;
38037;SDS011;23843;51.320;12.340;2023-06-10T13:06:07;4.78;;;4.38;;
38037;SDS011;23843;51.320;12.340;2023-06-10T13:08:32;5.15;;;4.45;;
38037;SDS011;23843;51.320;12.340;2023-06-10T13:10:58;5.75;;;5.18;;
38037;SDS011;23843;51.320;12.340;2023-06-10T13:13:23;5.60;;;5.07;;
38037;SDS011;23843;51.320;12.340;2023-06-10T13:15:50;5.20;;;4.80;;
38037;SDS011;23843;51.320;12.340;2023-06-10T13:18:16;5.47;;;4.90;;
38037;SDS011;23843;51.320;12.340;2023-06-10T13:20:42;6.95;;;4.55;;
38037;SDS011;23843;51.320;12.340;2023-06-10T13:23:07;6.10;;;5.35;;
38037;SDS011;23843;51.320;12.340;2023-06-10T13:25:33;5.30;;;4.80;;
38037;SDS011;23843;51.320;12.340;2023-06-10T13:27:58;5.72;;;4.43;;
38037;SDS011;23843;51.320;12.340;2023-06-10T13:30:24;5.28;;;4.80;;
38037;SDS011;23843;51.320;12.340;2023-06-10T13:32:51;3.90;;;3.47;;
38037;SDS011;23843;51.320;12.340;2023-06-10T13:35:16;4.32;;;3.92;;
38037;SDS011;23843;51.320;12.340;2023-06-10T13:37:42;4.10;;;3.70;;
38037;SDS011;23843;51.320;12.340;2023-06-10T13:40:08;4.20;;;3.80;;
38037;SDS011;23843;51.320;12.340;2023-06-10T13:42:34;3.80;;;3.50;;
38037;SDS011;23843;51.320;12.340;2023-06-10T13:44:59;4.78;;;3.80;;
38037;SDS011;23843;51.320;12.340;2023-06-10T13:47:25;3.70;;;3.25;;
38037;SDS011;23843;51.320;12.340;2023-06-10T13:49:52;4.20;;;3.88;;
38037;SDS011;23843;51.320;12.340;2023-06-10T13:52:17;3.70;;;3.35;;
38037;SDS011;23843;51.320;12.340;2023-06-10T13:54:44;3.38;;;3.08;;
38037;SDS011;23843;51.320;12.340;2023-06-10T13:57:09;3.20;;;2.90;;
38037;SDS011;23843;51.320;12.340;2023-06-10T13:59:35;3.38;;;3.08;;
38037;SDS011;23843;51.320;12.340;2023-06-10T14:02:00;3.20;;;2.90;;
38037;SDS011;23843;51.320;12.340;2023-06-10T14:04:26;3.20;;;2.90;;
38037;SDS011;23843;51.320;12.340;2023-06-10T14:06:53;3.60;;;3.10;;
38037;SDS011;23843;51.320;12.340;2023-06-10T14:09:18;2.80;;;2.60;;
38037;SDS011;23843;51.320;12.340;2023-06-10T14:11:44;2.60;;;2.40;;
38037;SDS011;23843;51.320;12.340;2023-06-10T14:14:09;2.50;;;2.30;;
38037;SDS011;23843;51.320;12.340;2023-06-10T14:16:35;2.42;;;2.22;;
38037;SDS011;23843;51.320;12.340;2023-06-10T14:19:00;2.08;;;1.88;;
38037;SDS011;23843;51.320;12.340;2023-06-10T14:21:26;1.60;;;1.50;;
38037;SDS011;23843;51.320;12.340;2023-06-10T14:23:53;2.72;;;2.40;;
38037;SDS011;23843;51.320;12.340;2023-06-10T14:26:18;2.15;;;1.95;;
38037;SDS011;23843;51.320;12.340;2023-06-10T14:28:44;2.28;;;1.90;;
38037;SDS011;23843;51.320;12.340;2023-06-10T14:31:09;2.13;;;2.03;;
38037;SDS011;23843;51.320;12.340;2023-06-10T14:33:35;2.45;;;2.22;;